Madison, IL (62060)

4:47 AM CDT on May 27, 2017 (GMT -0500)
St Louis, MO | | Change Station
Active Advisory: Flood Warning

Elev 505 ft 38.63 °N, 90.19 °W | Updated 8 minutes ago

Partly Cloudy
Partly Cloudy
71.4 °F
Feels Like 71 °F
N
0.0
Wind Variable Wind from SE

Today
High -- | Low -- °F
--% Chance of Precip.
Yesterday
High -- | Low -- °F
Precip. -- in
Pressure 29.82 in
Visibility 7.0 miles
Clouds Few 3000 ft
Heat Index 71 °F
Dew Point 66 °F
Humidity 84%
Rainfall 0.00 in
Snow Depth Not available.
5:39 AM 8:16 PM
Waxing Crescent, 4% visible
METAR KCPS 270853Z AUTO 00000KT 7SM FEW030 20/18 A2983 RMK AO2 SLP098 T02000183 58001
Pressure 29.82 in
Visibility 7.0 miles
Clouds Few 3000 ft
Heat Index 71 °F
Dew Point 66 °F
Humidity 84%
Rainfall 0.00 in
Snow Depth Not available.
5:39 AM 8:16 PM
Waxing Crescent, 4% visible
METAR KCPS 270853Z AUTO 00000KT 7SM FEW030 20/18 A2983 RMK AO2 SLP098 T02000183 58001

Get Your Daily Forecast Email!

Thanks for signing up!

Be on the lookout for a verification email in your inbox.

You'll start receiving severe weather alerts in your inbox..

×

10-Day Weather Forecast

Almanac

Astronomy

May. 27, 2017 Rise Set
Actual Time
Civil Twilight
Nautical Twilight
Astronomical Twilight
Moon
Length of Visible Light
Length of Day
Tomorrow will be .
, % of the Moon is Illuminated

Today's Extremes

State Highs State Lows

Community

WunderPhotos

Category 6

Welcome to Category 6. This is the collective home for Weather Underground's featured writeups by Dr. Jeff Masters (right), Bob Henson (left), Chris Burt, and other regular contributors.

Nearby

Air Quality

  Air Quality AQ Index Pollutant
Not available.

Snow Depth

Station Depth Elevation

Earthquake Activity

City Distance Mag. Time & Date
Minimum magnitude displayed is 2.5.

Coastal Water Temperatures

Place Temperature

Stations

Nearby Weather Stations

Station Location Temp. Windchill Dew Point Humidity Wind Precip. Elev Updated Type
                   

Watches & Warnings

Flood Warning
Issued: 9:41 PM CDT May. 26, 2017 – National Weather Service

The Flood Warning continues for
the Mississippi River at mel price lock and dam
* until further notice.
* At 9:00 PM Friday the stage was 24.2 feet.
* Flood stage is 21.0 feet.
* Minor flooding is forecast.
* The river is forecast to continue to fall to near 22.7 feet Sunday
morning.


                   Fld latest 7 a.M. Forecast
location stg obs stg 05/27 05/28 05/29 05/30 05/31

Mississippi River
mel price ld 21.0 24.23 23.7 22.7 22.0 21.7 21.4




Lat... Lon 3891 9033 3895 9028 3883 9003 3881 9017
      3886 9017